Time;durP1;ratioP1;P1;durP2;ratioP2;P2;SDS_P1;SDS_P2;PMS_P1;PMS_P2;Temp;Humidity;BMP_temperature;BMP_pressure;BME280_temperature;BME280_humidity;BME280_pressure;Samples;Min_cycle;Max_cycle;Signal;HPM_P1;HPM_P2
2023/12/20 00:02:15;;;;;;;14.05;1.73;;;5.30;99.90;;;;;;5064960;28;20159;-64
2023/12/20 00:04:42;;;;;;;9.95;1.90;;;5.30;99.90;;;;;;5069723;28;20045;-66
2023/12/20 00:07:09;;;;;;;6.78;1.85;;;5.30;99.90;;;;;;5074107;28;20040;-66
2023/12/20 00:09:36;;;;;;;5.88;1.60;;;5.40;99.90;;;;;;5074775;28;20135;-65
2023/12/20 00:12:04;;;;;;;6.18;1.75;;;5.30;99.90;;;;;;5051009;28;20051;-63
2023/12/20 00:14:30;;;;;;;17.20;3.95;;;5.40;99.90;;;;;;5073168;28;20048;-64
2023/12/20 00:16:57;;;;;;;8.63;1.90;;;5.40;99.90;;;;;;5074091;28;20347;-64
2023/12/20 00:19:24;;;;;;;7.95;2.05;;;5.40;99.90;;;;;;5057579;28;20112;-63
2023/12/20 00:21:51;;;;;;;14.07;2.15;;;5.40;99.90;;;;;;5071916;28;20059;-64
2023/12/20 00:24:18;;;;;;;8.40;1.58;;;5.40;99.90;;;;;;5071958;28;20543;-66
2023/12/20 00:26:45;;;;;;;3.67;1.25;;;5.40;99.90;;;;;;5073964;28;20056;-64
2023/12/20 00:29:11;;;;;;;13.57;2.03;;;5.40;99.90;;;;;;5072542;28;20040;-66
2023/12/20 00:31:39;;;;;;;8.07;1.52;;;5.40;99.90;;;;;;5072644;28;20536;-64
2023/12/20 00:34:05;;;;;;;10.30;1.75;;;5.40;99.90;;;;;;5069149;28;20036;-65
2023/12/20 00:36:33;;;;;;;14.00;2.25;;;5.30;99.90;;;;;;5070838;28;20047;-64
2023/12/20 00:39:00;;;;;;;7.00;2.10;;;5.30;99.90;;;;;;5051907;28;20098;-62
2023/12/20 00:41:27;;;;;;;9.73;2.40;;;5.30;99.90;;;;;;4723505;28;10000836;-64
2023/12/20 00:43:54;;;;;;;8.13;1.83;;;5.30;99.90;;;;;;5066606;28;20260;-64
2023/12/20 00:46:20;;;;;;;11.65;1.92;;;5.30;99.90;;;;;;5064517;28;20060;-64
2023/12/20 00:48:47;;;;;;;6.60;2.08;;;5.30;99.90;;;;;;5075050;28;20036;-64
2023/12/20 00:51:14;;;;;;;16.85;4.05;;;5.30;99.90;;;;;;5071688;28;20049;-65
2023/12/20 00:53:41;;;;;;;8.77;2.03;;;5.40;99.90;;;;;;5069349;28;20036;-65
2023/12/20 00:56:08;;;;;;;11.20;2.10;;;5.30;99.90;;;;;;5069892;28;20109;-66
2023/12/20 00:58:35;;;;;;;11.75;2.55;;;5.40;99.90;;;;;;5068972;28;20052;-65
2023/12/20 01:01:01;;;;;;;12.18;1.58;;;5.30;99.90;;;;;;5084933;28;20052;-65
2023/12/20 01:03:29;;;;;;;15.32;2.97;;;5.40;99.90;;;;;;5069367;28;20045;-64
2023/12/20 01:05:56;;;;;;;11.68;2.08;;;5.30;99.90;;;;;;5051654;28;20044;-66
2023/12/20 01:08:23;;;;;;;10.15;1.83;;;5.40;99.90;;;;;;5069259;28;20067;-65
2023/12/20 01:10:49;;;;;;;9.23;2.00;;;5.40;99.90;;;;;;5069303;28;20055;-63
2023/12/20 01:13:16;;;;;;;14.48;1.65;;;5.40;99.90;;;;;;5068821;28;20376;-67
2023/12/20 01:15:43;;;;;;;17.70;4.55;;;5.40;99.90;;;;;;5069446;28;20487;-64
2023/12/20 01:18:10;;;;;;;8.85;1.70;;;5.40;99.90;;;;;;5068905;28;20064;-64
2023/12/20 01:20:37;;;;;;;9.18;1.33;;;5.40;99.90;;;;;;5069366;28;20094;-64
2023/12/20 01:23:04;;;;;;;12.65;3.95;;;5.40;99.90;;;;;;5068694;28;20090;-64
2023/12/20 01:25:30;;;;;;;11.30;2.95;;;5.40;99.90;;;;;;5068698;28;20101;-64
2023/12/20 01:27:57;;;;;;;14.40;2.33;;;5.40;99.90;;;;;;5069290;28;20067;-64
2023/12/20 01:30:24;;;;;;;12.88;2.03;;;5.40;99.90;;;;;;5068773;28;20040;-64
2023/12/20 01:32:51;;;;;;;10.80;2.25;;;5.40;99.90;;;;;;5066709;28;20410;-64
2023/12/20 01:35:18;;;;;;;9.18;1.77;;;5.50;99.90;;;;;;5067329;28;20040;-64
2023/12/20 01:37:45;;;;;;;12.45;3.20;;;5.40;99.90;;;;;;5066757;28;20079;-63
2023/12/20 01:40:13;;;;;;;12.35;1.83;;;5.50;99.90;;;;;;5069093;28;20080;-64
2023/12/20 01:42:41;;;;;;;10.52;2.47;;;5.50;99.90;;;;;;5051022;28;20587;-64
2023/12/20 01:45:08;;;;;;;8.93;1.77;;;5.50;99.90;;;;;;5068547;28;20045;-64
2023/12/20 01:47:36;;;;;;;7.90;1.40;;;5.50;99.90;;;;;;5069015;28;20148;-64
2023/12/20 01:50:03;;;;;;;21.23;3.38;;;5.50;99.90;;;;;;5068924;28;20127;-64
2023/12/20 01:52:31;;;;;;;6.40;2.60;;;5.50;99.90;;;;;;5067001;28;20078;-64
2023/12/20 01:55:02;;;;;;;8.23;2.08;;;5.50;99.90;;;;;;5083905;28;20085;-66
2023/12/20 01:57:29;;;;;;;7.88;1.88;;;5.50;99.90;;;;;;5051408;28;20382;-64
2023/12/20 01:59:56;;;;;;;10.95;2.42;;;5.50;99.90;;;;;;5083759;28;20045;-64
2023/12/20 02:02:23;;;;;;;10.18;2.05;;;5.60;99.90;;;;;;5067924;28;20067;-64
2023/12/20 02:04:52;;;;;;;6.32;1.58;;;5.60;99.90;;;;;;5065824;28;20053;-64
2023/12/20 02:07:19;;;;;;;13.30;2.20;;;5.60;99.90;;;;;;5068275;28;20086;-67
2023/12/20 02:09:46;;;;;;;11.80;2.58;;;5.70;99.90;;;;;;5066939;28;20043;-65
2023/12/20 02:12:13;;;;;;;11.57;1.83;;;5.60;99.90;;;;;;5068274;28;20049;-64
2023/12/20 02:14:40;;;;;;;9.50;1.80;;;5.70;99.90;;;;;;5068030;28;20045;-64
2023/12/20 02:17:07;;;;;;;9.82;1.77;;;5.70;99.90;;;;;;5083200;28;20056;-64
2023/12/20 02:19:34;;;;;;;13.00;3.80;;;5.70;99.90;;;;;;5083017;28;20149;-64
2023/12/20 02:22:11;;;;;;;14.88;1.67;;;5.70;99.90;;;;;;5064372;28;20048;-64
2023/12/20 02:24:38;;;;;;;5.93;1.70;;;5.70;99.90;;;;;;5049778;28;20135;-64
2023/12/20 02:27:06;;;;;;;12.93;2.22;;;5.60;99.90;;;;;;5067666;28;20044;-67
2023/12/20 02:29:34;;;;;;;9.88;2.53;;;5.60;99.90;;;;;;5083676;28;20186;-64
2023/12/20 02:32:01;;;;;;;10.63;2.00;;;5.70;99.90;;;;;;5049746;28;20518;-64
2023/12/20 02:34:27;;;;;;;14.95;1.83;;;5.70;99.90;;;;;;5049232;28;20041;-65
2023/12/20 02:36:54;;;;;;;9.77;1.70;;;5.70;99.90;;;;;;5067486;28;20049;-64
2023/12/20 02:39:22;;;;;;;6.40;1.35;;;5.70;99.90;;;;;;5068154;28;20056;-65
2023/12/20 02:41:49;;;;;;;15.38;1.67;;;5.70;99.90;;;;;;5067208;28;20056;-65
2023/12/20 02:44:16;;;;;;;7.97;1.58;;;5.70;99.90;;;;;;4697941;28;10000001;-64
2023/12/20 02:46:42;;;;;;;10.43;1.50;;;5.70;99.90;;;;;;5064368;28;20102;-64
2023/12/20 02:49:09;;;;;;;28.92;4.68;;;5.70;99.90;;;;;;5068039;28;20114;-65
2023/12/20 02:51:38;;;;;;;11.43;2.15;;;5.70;99.90;;;;;;5049743;28;20048;-64
2023/12/20 02:54:05;;;;;;;8.68;2.95;;;5.60;99.90;;;;;;5033187;28;20118;-64
2023/12/20 02:56:33;;;;;;;16.38;1.85;;;5.60;99.90;;;;;;5068014;28;20055;-64
2023/12/20 02:58:59;;;;;;;10.23;2.35;;;5.60;99.90;;;;;;5068408;28;20127;-64
2023/12/20 03:01:27;;;;;;;10.25;2.20;;;5.60;99.90;;;;;;5068650;28;20044;-64
2023/12/20 03:03:54;;;;;;;15.23;2.00;;;5.60;99.90;;;;;;5068679;28;20044;-64
2023/12/20 03:06:21;;;;;;;6.15;1.52;;;5.60;99.90;;;;;;5069794;28;20052;-64
2023/12/20 03:08:48;;;;;;;11.05;1.77;;;5.60;99.90;;;;;;5069164;28;20076;-64
2023/12/20 03:11:15;;;;;;;11.35;2.70;;;5.60;99.90;;;;;;5068846;28;20052;-64
2023/12/20 03:13:42;;;;;;;8.63;1.98;;;5.60;99.90;;;;;;5067477;28;20049;-64
2023/12/20 03:16:10;;;;;;;6.55;1.88;;;5.60;99.90;;;;;;5067336;28;20541;-65
2023/12/20 03:18:36;;;;;;;9.32;2.75;;;5.60;99.90;;;;;;5049323;28;20299;-64
2023/12/20 03:21:04;;;;;;;13.88;1.75;;;5.60;99.90;;;;;;5067770;28;20052;-64
2023/12/20 03:23:32;;;;;;;9.30;2.03;;;5.50;99.90;;;;;;5066841;28;20047;-64
2023/12/20 03:25:59;;;;;;;9.88;1.42;;;5.60;99.90;;;;;;5066998;28;20264;-64
2023/12/20 03:28:27;;;;;;;11.23;3.10;;;5.50;99.90;;;;;;5066352;28;20045;-66
2023/12/20 03:30:54;;;;;;;13.13;1.80;;;5.50;99.90;;;;;;5049877;28;20074;-65
2023/12/20 03:33:21;;;;;;;16.52;2.20;;;5.50;99.90;;;;;;5066597;28;20048;-64
2023/12/20 03:35:47;;;;;;;6.28;1.85;;;5.50;99.90;;;;;;5066579;28;20353;-64
2023/12/20 03:38:14;;;;;;;11.68;2.85;;;5.50;99.90;;;;;;5066621;28;20041;-67
2023/12/20 03:40:41;;;;;;;15.55;2.03;;;5.50;99.90;;;;;;5066279;28;20057;-64
2023/12/20 03:43:08;;;;;;;9.52;2.08;;;5.50;99.90;;;;;;5066824;28;20102;-64
2023/12/20 03:45:35;;;;;;;10.65;2.22;;;5.50;99.90;;;;;;5066495;28;20381;-64
2023/12/20 03:48:02;;;;;;;13.48;2.40;;;5.50;99.90;;;;;;5066752;28;20052;-66
2023/12/20 03:50:29;;;;;;;8.15;1.92;;;5.40;99.90;;;;;;5066807;28;20457;-64
2023/12/20 03:52:56;;;;;;;14.77;2.00;;;5.40;99.90;;;;;;5066805;28;20056;-64
2023/12/20 03:55:23;;;;;;;11.85;1.80;;;5.40;99.90;;;;;;5048524;28;20048;-64
2023/12/20 03:57:49;;;;;;;10.18;2.20;;;5.40;99.90;;;;;;5066793;28;20148;-64
2023/12/20 04:00:17;;;;;;;10.60;2.88;;;5.40;99.90;;;;;;5044958;28;20193;-64
2023/12/20 04:02:43;;;;;;;10.32;1.63;;;5.40;99.90;;;;;;5067004;28;20051;-64
2023/12/20 04:05:10;;;;;;;13.77;1.95;;;5.40;99.90;;;;;;5062520;28;20049;-64
2023/12/20 04:07:38;;;;;;;13.90;2.38;;;5.40;99.90;;;;;;5050654;28;20131;-64
2023/12/20 04:10:05;;;;;;;17.40;2.63;;;5.40;99.90;;;;;;5079062;28;20479;-64
2023/12/20 04:12:32;;;;;;;12.40;1.85;;;5.40;99.90;;;;;;5066522;28;20064;-64
2023/12/20 04:14:59;;;;;;;17.20;1.80;;;5.40;99.90;;;;;;5066085;28;20184;-64
2023/12/20 04:17:26;;;;;;;8.18;2.10;;;5.30;99.90;;;;;;5066283;28;20143;-63
2023/12/20 04:19:53;;;;;;;16.30;2.42;;;5.30;99.90;;;;;;5066399;28;20040;-64
2023/12/20 04:22:20;;;;;;;8.30;2.47;;;5.30;99.90;;;;;;5081363;28;20103;-64
2023/12/20 04:24:47;;;;;;;7.65;1.88;;;5.40;99.90;;;;;;5048219;28;20044;-64
2023/12/20 04:27:14;;;;;;;12.00;2.42;;;5.40;99.90;;;;;;5065723;28;20049;-63
2023/12/20 04:29:40;;;;;;;16.42;1.83;;;5.40;99.90;;;;;;5065349;28;20045;-66
2023/12/20 04:32:07;;;;;;;16.17;1.88;;;5.40;99.90;;;;;;5065829;28;20048;-65
2023/12/20 04:34:34;;;;;;;8.45;2.83;;;5.40;99.90;;;;;;5065630;28;20037;-65
2023/12/20 04:37:01;;;;;;;15.23;2.33;;;5.40;99.90;;;;;;5048070;28;20503;-66
2023/12/20 04:39:28;;;;;;;10.10;2.45;;;5.40;99.90;;;;;;5065591;28;20284;-65
2023/12/20 04:41:55;;;;;;;12.10;1.80;;;5.50;99.90;;;;;;5065673;28;20438;-64
2023/12/20 04:44:22;;;;;;;14.93;2.28;;;5.50;99.90;;;;;;5066262;28;20057;-65
2023/12/20 04:46:49;;;;;;;8.07;1.77;;;5.50;99.90;;;;;;5063123;28;20060;-66
2023/12/20 04:49:16;;;;;;;13.05;2.88;;;5.50;99.90;;;;;;5066115;28;20048;-65
2023/12/20 04:51:43;;;;;;;11.07;2.05;;;5.50;99.90;;;;;;5065995;28;20079;-65
2023/12/20 04:54:10;;;;;;;17.05;2.47;;;5.50;99.90;;;;;;5077736;28;20136;-65
2023/12/20 04:56:38;;;;;;;8.75;1.98;;;5.50;99.90;;;;;;5047699;28;20040;-65
2023/12/20 04:59:05;;;;;;;17.88;3.95;;;5.50;99.90;;;;;;5065645;28;20052;-65
2023/12/20 05:01:32;;;;;;;14.45;4.22;;;5.50;99.90;;;;;;5080654;28;20060;-65
2023/12/20 05:03:59;;;;;;;11.65;2.13;;;5.50;99.90;;;;;;5047680;28;20045;-65
2023/12/20 05:06:26;;;;;;;12.77;3.22;;;5.60;99.90;;;;;;5065427;28;20113;-64
2023/12/20 05:08:53;;;;;;;17.33;2.75;;;5.50;99.90;;;;;;5065752;28;20053;-66
2023/12/20 05:11:20;;;;;;;11.68;1.83;;;5.50;99.90;;;;;;5065691;28;20044;-65
2023/12/20 05:13:47;;;;;;;16.73;3.03;;;5.50;99.90;;;;;;5065835;28;20110;-65
2023/12/20 05:16:17;;;;;;;11.57;2.60;;;5.60;99.90;;;;;;5065467;28;20044;-65
2023/12/20 05:18:47;;;;;;;9.60;1.98;;;5.60;99.90;;;;;;5065390;28;20040;-65
2023/12/20 05:21:14;;;;;;;11.35;2.90;;;5.60;99.90;;;;;;5065745;28;20098;-65
2023/12/20 05:23:40;;;;;;;23.25;6.75;;;5.60;99.90;;;;;;5065431;28;20053;-65
2023/12/20 05:26:07;;;;;;;12.43;3.55;;;5.60;99.90;;;;;;5064976;28;20091;-65
2023/12/20 05:28:34;;;;;;;14.82;2.55;;;5.60;99.90;;;;;;5065403;28;20056;-65
2023/12/20 05:31:01;;;;;;;15.57;2.50;;;5.60;99.90;;;;;;5047460;28;20091;-65
2023/12/20 05:33:28;;;;;;;13.55;2.53;;;5.60;99.90;;;;;;5065688;28;20051;-65
2023/12/20 05:35:55;;;;;;;16.50;2.70;;;5.60;99.90;;;;;;5065181;28;20487;-64
2023/12/20 05:38:22;;;;;;;15.27;2.97;;;5.60;99.90;;;;;;5080366;28;20185;-65
2023/12/20 05:40:48;;;;;;;11.98;2.42;;;5.60;99.90;;;;;;5068611;28;20048;-65
2023/12/20 05:43:15;;;;;;;14.80;2.03;;;5.50;99.90;;;;;;5068550;28;20090;-65
2023/12/20 05:45:42;;;;;;;8.13;1.98;;;5.60;99.90;;;;;;5050447;28;20053;-65
2023/12/20 05:48:09;;;;;;;9.00;1.80;;;5.60;99.90;;;;;;5050005;28;20086;-65
2023/12/20 05:50:36;;;;;;;15.25;2.03;;;5.60;99.90;;;;;;5068682;28;20040;-65
2023/12/20 05:53:03;;;;;;;15.48;2.15;;;5.60;99.90;;;;;;5068427;28;20122;-64
2023/12/20 05:55:30;;;;;;;16.67;2.35;;;5.50;99.90;;;;;;5068538;28;20064;-65
2023/12/20 05:57:57;;;;;;;14.20;2.08;;;5.60;99.90;;;;;;5068236;28;20479;-64
2023/12/20 06:00:25;;;;;;;13.45;2.33;;;5.60;99.90;;;;;;5068327;28;20098;-64
2023/12/20 06:02:52;;;;;;;15.55;2.38;;;5.60;99.90;;;;;;5050254;28;20052;-65
2023/12/20 06:05:18;;;;;;;9.93;2.33;;;5.60;99.90;;;;;;5050521;28;20421;-65
2023/12/20 06:07:48;;;;;;;11.65;2.78;;;5.70;99.90;;;;;;5068372;28;20052;-65
2023/12/20 06:10:15;;;;;;;12.75;2.72;;;5.70;99.90;;;;;;5050961;28;20056;-65
2023/12/20 06:12:42;;;;;;;11.57;2.28;;;5.60;99.90;;;;;;5068308;28;20048;-65
2023/12/20 06:15:09;;;;;;;14.48;1.58;;;5.70;99.90;;;;;;5049719;28;20033;-65
2023/12/20 06:17:36;;;;;;;16.75;3.05;;;5.70;99.90;;;;;;5067994;28;20044;-65
2023/12/20 06:20:07;;;;;;;12.23;2.25;;;5.70;99.90;;;;;;5067758;28;20110;-65
2023/12/20 06:22:35;;;;;;;9.10;2.00;;;5.70;99.90;;;;;;5050764;28;20056;-65
2023/12/20 06:25:02;;;;;;;16.83;2.53;;;5.70;99.90;;;;;;5042497;28;20584;-66
2023/12/20 06:27:30;;;;;;;12.52;2.20;;;5.70;99.90;;;;;;5056020;28;20539;-65
2023/12/20 06:29:57;;;;;;;15.00;2.28;;;5.70;99.90;;;;;;5044213;28;20430;-65
2023/12/20 06:32:24;;;;;;;15.48;3.33;;;5.70;99.90;;;;;;5063953;28;20122;-65
2023/12/20 06:34:51;;;;;;;9.75;2.00;;;5.80;99.90;;;;;;5053098;28;20055;-65
2023/12/20 06:37:18;;;;;;;12.63;2.17;;;5.80;99.90;;;;;;5068997;28;20052;-65
2023/12/20 06:39:45;;;;;;;13.05;2.78;;;5.80;99.90;;;;;;5069290;28;20127;-65
2023/12/20 06:42:12;;;;;;;14.18;2.30;;;5.90;99.90;;;;;;5051700;28;20049;-65
2023/12/20 06:44:39;;;;;;;14.23;2.25;;;5.90;99.90;;;;;;5084340;28;20048;-65
2023/12/20 06:47:06;;;;;;;10.07;1.98;;;5.90;99.90;;;;;;5067801;28;20044;-65
2023/12/20 06:49:33;;;;;;;7.15;1.83;;;5.90;99.90;;;;;;5067054;28;20141;-65
2023/12/20 06:52:00;;;;;;;19.15;2.15;;;5.90;99.90;;;;;;5067582;28;20055;-65
2023/12/20 06:54:27;;;;;;;14.05;2.50;;;5.90;99.90;;;;;;5067183;28;20042;-65
2023/12/20 06:56:54;;;;;;;21.48;6.20;;;5.90;99.90;;;;;;5067358;28;20044;-65
2023/12/20 06:59:21;;;;;;;23.08;3.85;;;5.90;99.90;;;;;;5067127;28;20090;-65
2023/12/20 07:01:48;;;;;;;8.15;1.65;;;6.00;99.90;;;;;;5067142;28;20050;-65
2023/12/20 07:04:19;;;;;;;15.13;2.50;;;6.00;99.90;;;;;;5067341;28;20048;-65
2023/12/20 07:06:48;;;;;;;14.20;3.05;;;6.00;99.90;;;;;;5067286;28;20040;-65
2023/12/20 07:09:15;;;;;;;14.02;1.58;;;6.00;99.90;;;;;;5067317;28;20079;-65
2023/12/20 07:11:42;;;;;;;21.92;2.47;;;6.00;99.90;;;;;;5066882;28;20055;-65
2023/12/20 07:14:08;;;;;;;16.98;2.67;;;6.00;99.90;;;;;;5049463;28;20060;-65
2023/12/20 07:16:36;;;;;;;14.55;2.88;;;6.00;99.90;;;;;;5048273;28;20048;-65
2023/12/20 07:19:03;;;;;;;10.63;1.75;;;6.00;99.90;;;;;;5067072;28;20052;-65
2023/12/20 07:21:30;;;;;;;12.68;2.03;;;6.10;99.90;;;;;;5048159;28;20052;-65
2023/12/20 07:23:58;;;;;;;13.60;2.40;;;6.10;99.90;;;;;;5082100;28;21436;-65
2023/12/20 07:26:25;;;;;;;9.88;1.73;;;6.10;99.90;;;;;;5066627;28;20131;-65
2023/12/20 07:28:52;;;;;;;15.85;2.47;;;6.10;99.90;;;;;;5066894;28;20139;-65
2023/12/20 07:31:18;;;;;;;12.73;2.88;;;6.00;99.90;;;;;;5066247;28;20380;-65
2023/12/20 07:33:45;;;;;;;15.65;2.15;;;6.10;99.90;;;;;;5065977;28;20049;-65
2023/12/20 07:36:12;;;;;;;11.88;2.58;;;6.10;99.90;;;;;;5066802;28;20052;-65
2023/12/20 07:38:39;;;;;;;10.60;1.83;;;6.10;99.90;;;;;;5047983;28;20048;-65
2023/12/20 07:41:06;;;;;;;10.55;2.30;;;6.10;99.90;;;;;;5066876;28;20083;-64
2023/12/20 07:43:33;;;;;;;12.55;3.08;;;6.10;99.90;;;;;;5048178;28;20085;-65
2023/12/20 07:46:10;;;;;;;7.13;1.50;;;6.20;99.90;;;;;;5066002;28;20093;-65
2023/12/20 07:48:37;;;;;;;14.32;2.90;;;6.20;99.90;;;;;;5066130;28;20464;-65
2023/12/20 07:51:05;;;;;;;24.27;3.35;;;6.20;99.90;;;;;;5066512;28;20094;-64
2023/12/20 07:53:32;;;;;;;12.88;2.20;;;6.30;99.90;;;;;;5066123;28;20049;-65
2023/12/20 07:55:59;;;;;;;13.00;2.00;;;6.30;99.90;;;;;;5081650;28;20044;-65
2023/12/20 07:58:26;;;;;;;14.85;3.40;;;6.30;99.90;;;;;;5065704;28;20506;-65
2023/12/20 08:01:11;;;;;;;14.20;2.42;;;6.30;99.90;;;;;;5065874;28;20422;-65
2023/12/20 08:03:38;;;;;;;13.30;2.28;;;6.30;99.90;;;;;;5059645;28;20143;-64
2023/12/20 08:06:05;;;;;;;16.02;3.35;;;6.40;99.90;;;;;;5072117;28;20491;-63
2023/12/20 08:08:32;;;;;;;24.25;3.13;;;6.40;99.90;;;;;;5074638;28;20056;-64
2023/12/20 08:11:00;;;;;;;9.77;2.10;;;6.40;99.90;;;;;;5076082;28;20040;-63
2023/12/20 08:13:27;;;;;;;11.20;1.95;;;6.40;99.90;;;;;;5074042;28;20440;-64
2023/12/20 08:15:55;;;;;;;18.77;2.45;;;6.40;99.90;;;;;;5075738;28;20040;-64
2023/12/20 08:18:23;;;;;;;17.80;2.70;;;6.40;99.90;;;;;;5054590;28;20094;-64
2023/12/20 08:20:52;;;;;;;19.40;4.45;;;6.50;99.90;;;;;;5073606;28;20045;-64
2023/12/20 08:23:20;;;;;;;12.38;3.63;;;6.40;99.90;;;;;;5071791;28;20587;-64
2023/12/20 08:25:50;;;;;;;10.75;1.95;;;6.40;99.90;;;;;;5054185;28;20036;-63
2023/12/20 08:28:17;;;;;;;25.30;3.40;;;6.40;99.90;;;;;;5073829;28;20068;-65
2023/12/20 08:30:44;;;;;;;13.63;2.47;;;6.40;99.90;;;;;;5055712;28;20052;-64
2023/12/20 08:33:12;;;;;;;10.73;2.30;;;6.50;99.90;;;;;;5074007;28;20055;-64
2023/12/20 08:35:40;;;;;;;11.07;2.35;;;6.50;99.90;;;;;;5031398;28;20105;-64
2023/12/20 08:38:07;;;;;;;14.82;2.78;;;6.50;99.90;;;;;;5064402;28;20103;-66
2023/12/20 08:40:34;;;;;;;19.75;2.88;;;6.50;99.90;;;;;;5050873;28;20443;-64
2023/12/20 08:43:01;;;;;;;18.98;2.55;;;6.50;99.90;;;;;;5071614;28;20491;-65
2023/12/20 08:45:28;;;;;;;14.10;2.47;;;6.50;99.90;;;;;;5089446;28;20395;-64
2023/12/20 08:47:54;;;;;;;11.13;2.33;;;6.50;99.90;;;;;;5065415;28;20455;-64
2023/12/20 08:50:25;;;;;;;23.00;2.80;;;6.60;99.90;;;;;;5060729;28;20040;-64
2023/12/20 08:52:52;;;;;;;12.73;2.28;;;6.60;99.90;;;;;;5042079;28;20103;-64
2023/12/20 08:55:19;;;;;;;9.38;2.25;;;6.60;99.90;;;;;;5054337;28;20109;-65
2023/12/20 08:57:46;;;;;;;13.98;1.98;;;6.60;99.90;;;;;;5058188;28;20093;-63
2023/12/20 09:00:14;;;;;;;20.33;3.42;;;6.70;99.90;;;;;;5056603;28;20056;-64
2023/12/20 09:02:41;;;;;;;11.50;2.45;;;6.70;99.90;;;;;;5082504;28;20108;-64
2023/12/20 09:05:08;;;;;;;18.75;2.88;;;6.80;99.90;;;;;;5068912;28;20384;-65
2023/12/20 09:07:35;;;;;;;10.93;1.83;;;6.80;99.90;;;;;;5046877;28;20148;-65
2023/12/20 09:10:03;;;;;;;16.85;2.63;;;6.90;99.90;;;;;;5062558;28;20437;-63
2023/12/20 09:12:30;;;;;;;12.44;1.82;;;7.00;99.90;;;;;;4679481;28;10000700;-65
2023/12/20 09:14:57;;;;;;;12.82;2.03;;;7.00;99.90;;;;;;5069283;28;20078;-64
2023/12/20 09:17:24;;;;;;;14.75;3.30;;;7.00;99.90;;;;;;5068428;28;20052;-64
2023/12/20 09:19:53;;;;;;;15.77;4.25;;;7.10;99.90;;;;;;5074359;28;20076;-64
2023/12/20 09:22:21;;;;;;;12.35;2.00;;;7.10;99.90;;;;;;5074344;28;20860;-64
2023/12/20 09:24:48;;;;;;;18.88;2.53;;;7.20;99.90;;;;;;5075382;28;20498;-63
2023/12/20 09:27:15;;;;;;;17.75;2.50;;;7.30;99.90;;;;;;5061165;28;20452;-64
2023/12/20 09:29:42;;;;;;;13.77;2.85;;;7.30;99.90;;;;;;5079910;28;20532;-64
2023/12/20 09:32:09;;;;;;;16.40;2.40;;;7.40;99.90;;;;;;5078136;28;20207;-64
2023/12/20 09:34:37;;;;;;;16.63;2.65;;;7.40;99.90;;;;;;5054053;28;20056;-64
2023/12/20 09:37:05;;;;;;;11.98;2.63;;;7.50;99.90;;;;;;5073948;28;20062;-64
2023/12/20 09:39:32;;;;;;;12.85;2.45;;;7.60;99.90;;;;;;5074185;28;20683;-64
2023/12/20 09:42:02;;;;;;;16.25;3.35;;;7.60;99.90;;;;;;5057514;28;20105;-64
2023/12/20 09:44:30;;;;;;;9.05;1.95;;;7.70;99.90;;;;;;5074956;28;20060;-65
2023/12/20 09:46:57;;;;;;;15.30;3.42;;;7.80;99.90;;;;;;5077962;28;20048;-65
2023/12/20 09:49:24;;;;;;;9.70;2.38;;;7.80;99.90;;;;;;5076036;28;20044;-65
2023/12/20 09:51:51;;;;;;;11.57;2.35;;;7.90;99.90;;;;;;5042528;28;20055;-66
2023/12/20 09:54:18;;;;;;;10.52;2.60;;;8.00;99.90;;;;;;5081315;28;20054;-64
2023/12/20 09:56:45;;;;;;;14.80;3.67;;;8.00;99.90;;;;;;5062543;28;20053;-64
2023/12/20 09:59:14;;;;;;;22.45;2.72;;;8.10;99.90;;;;;;5055188;28;20087;-65
2023/12/20 10:01:43;;;;;;;16.63;3.28;;;8.10;99.90;;;;;;5069727;28;20055;-65
2023/12/20 10:04:13;;;;;;;11.57;1.80;;;8.20;99.90;;;;;;5058362;28;20055;-64
2023/12/20 10:06:56;;;;;;;18.13;2.50;;;8.40;99.90;;;;;;5041933;28;20200;-64
2023/12/20 10:09:24;;;;;;;16.25;2.67;;;8.30;99.90;;;;;;5070465;28;20052;-66
2023/12/20 10:11:54;;;;;;;18.90;2.63;;;8.30;99.90;;;;;;5065434;28;20052;-64
2023/12/20 10:14:20;;;;;;;12.02;2.55;;;8.30;99.90;;;;;;5060610;28;20044;-63
2023/12/20 10:16:47;;;;;;;13.30;2.15;;;8.30;99.90;;;;;;5058983;28;20079;-63
2023/12/20 10:19:17;;;;;;;8.23;2.00;;;8.30;99.90;;;;;;5066950;28;20053;-63
2023/12/20 10:21:45;;;;;;;8.10;2.38;;;8.30;99.90;;;;;;5061657;28;20048;-62
2023/12/20 10:24:17;;;;;;;18.83;3.15;;;8.40;99.90;;;;;;5060322;28;20048;-62
2023/12/20 10:26:44;;;;;;;16.10;2.40;;;8.40;99.90;;;;;;5045460;28;20132;-66
2023/12/20 10:29:11;;;;;;;12.07;2.28;;;8.40;99.90;;;;;;5062909;28;20122;-63
2023/12/20 10:31:42;;;;;;;16.98;2.42;;;8.50;99.90;;;;;;5053441;28;20043;-62
2023/12/20 10:34:09;;;;;;;8.38;1.55;;;8.50;99.90;;;;;;5054996;28;20144;-64
2023/12/20 10:36:36;;;;;;;7.53;1.55;;;8.60;99.90;;;;;;5070728;28;20228;-65
2023/12/20 10:39:05;;;;;;;10.50;2.00;;;8.60;99.90;;;;;;5068585;28;20056;-66
2023/12/20 10:41:32;;;;;;;14.55;2.13;;;8.60;99.90;;;;;;5070709;28;20360;-64
2023/12/20 10:44:00;;;;;;;7.35;2.22;;;8.70;99.90;;;;;;5073526;28;20044;-64
2023/12/20 10:46:30;;;;;;;6.88;1.95;;;8.70;99.90;;;;;;5072543;28;20044;-62
2023/12/20 10:48:57;;;;;;;9.82;1.80;;;8.70;99.90;;;;;;5072793;28;20145;-63
2023/12/20 10:51:26;;;;;;;13.85;3.95;;;8.80;99.90;;;;;;5074627;28;20128;-63
2023/12/20 10:53:53;;;;;;;16.20;2.17;;;8.80;99.90;;;;;;5074134;28;20117;-64
2023/12/20 10:56:21;;;;;;;18.05;3.25;;;8.90;99.90;;;;;;5074802;28;20040;-63
2023/12/20 10:58:49;;;;;;;12.30;4.07;;;8.90;99.90;;;;;;5054706;28;20048;-62
2023/12/20 11:01:17;;;;;;;9.23;1.88;;;8.90;99.90;;;;;;5074263;28;20066;-65
2023/12/20 11:03:50;;;;;;;10.80;2.38;;;8.90;99.90;;;;;;5067009;28;20204;-63
2023/12/20 11:06:32;;;;;;;11.25;1.80;;;8.90;99.90;;;;;;5077621;28;20107;-64
2023/12/20 11:09:22;;;;;;;18.17;3.15;;;8.90;99.90;;;;;;5065504;28;20129;-64
2023/12/20 11:12:11;;;;;;;7.25;1.80;;;8.90;99.90;;;;;;5047051;28;20075;-63
2023/12/20 11:14:45;;;;;;;11.38;3.10;;;8.90;99.90;;;;;;5065876;28;20139;-64
2023/12/20 11:17:18;;;;;;;9.73;1.77;;;8.90;99.90;;;;;;5070564;28;20040;-62
2023/12/20 11:19:57;;;;;;;7.35;1.55;;;8.90;99.90;;;;;;5073285;28;20642;-63
2023/12/20 11:22:25;;;;;;;9.93;1.90;;;9.00;99.90;;;;;;5075366;28;20052;-63
2023/12/20 11:24:52;;;;;;;10.15;1.52;;;9.00;99.90;;;;;;5047905;28;20399;-63
2023/12/20 11:27:19;;;;;;;11.25;2.00;;;9.00;99.90;;;;;;5056620;28;20571;-63
2023/12/20 11:29:54;;;;;;;11.90;1.90;;;9.00;99.90;;;;;;5065605;28;20094;-64
2023/12/20 11:32:30;;;;;;;9.80;2.47;;;9.00;99.90;;;;;;5075324;28;20054;-63
2023/12/20 11:35:10;;;;;;;7.88;2.17;;;9.00;99.90;;;;;;5067636;28;20153;-63
2023/12/20 11:37:38;;;;;;;7.72;1.70;;;9.00;99.90;;;;;;5073046;28;20400;-62
2023/12/20 11:40:11;;;;;;;9.63;2.05;;;9.10;99.90;;;;;;5065142;28;20044;-64
2023/12/20 11:42:39;;;;;;;12.73;2.55;;;9.20;99.90;;;;;;5066170;28;20132;-62
2023/12/20 11:45:09;;;;;;;17.02;4.32;;;9.30;99.90;;;;;;5049584;28;20392;-62
2023/12/20 11:47:36;;;;;;;10.75;2.22;;;9.30;99.90;;;;;;5067569;28;20450;-61
2023/12/20 11:50:04;;;;;;;14.93;1.88;;;9.30;99.90;;;;;;5080653;28;20036;-63
2023/12/20 11:52:31;;;;;;;17.73;2.22;;;9.30;99.90;;;;;;5071439;28;20056;-63
2023/12/20 11:54:58;;;;;;;12.23;2.47;;;9.30;99.90;;;;;;5070776;28;20079;-63
2023/12/20 11:57:25;;;;;;;12.80;1.75;;;9.30;99.90;;;;;;5071814;28;20411;-62
2023/12/20 11:59:54;;;;;;;9.68;1.75;;;9.40;99.90;;;;;;5056511;28;20044;-63
2023/12/20 12:02:21;;;;;;;9.27;2.97;;;9.50;99.90;;;;;;5049608;28;20049;-63
2023/12/20 12:04:51;;;;;;;8.68;1.90;;;9.50;99.90;;;;;;5088490;28;20110;-63
2023/12/20 12:07:18;;;;;;;9.48;2.22;;;9.60;99.90;;;;;;5068568;28;20094;-63
2023/12/20 12:09:46;;;;;;;8.57;1.73;;;9.60;99.90;;;;;;5053230;28;20117;-62
2023/12/20 12:12:13;;;;;;;4.47;1.17;;;9.70;99.90;;;;;;5063288;28;20482;-63
2023/12/20 12:14:40;;;;;;;16.63;1.80;;;9.70;99.90;;;;;;5030245;28;20283;-63
2023/12/20 12:17:13;;;;;;;6.13;1.70;;;9.70;99.90;;;;;;5063323;28;20041;-63
2023/12/20 12:19:41;;;;;;;11.00;2.33;;;9.80;99.90;;;;;;5063864;28;20223;-64
2023/12/20 12:22:15;;;;;;;10.40;2.15;;;9.80;99.90;;;;;;5063806;28;20072;-63
2023/12/20 12:24:44;;;;;;;5.70;1.77;;;9.80;99.90;;;;;;5062627;28;20149;-63
2023/12/20 12:27:11;;;;;;;8.20;1.80;;;9.80;99.90;;;;;;5045433;28;20514;-63
2023/12/20 12:29:38;;;;;;;12.20;2.92;;;9.80;99.90;;;;;;5063234;28;20052;-63
2023/12/20 12:32:08;;;;;;;4.07;1.58;;;9.70;99.90;;;;;;5064551;28;20052;-63
2023/12/20 12:34:35;;;;;;;16.02;2.55;;;9.70;99.90;;;;;;5058180;28;20473;-63
2023/12/20 12:37:03;;;;;;;5.30;1.20;;;9.70;99.90;;;;;;5063550;28;20041;-62
2023/12/20 12:39:30;;;;;;;5.63;1.60;;;9.80;99.90;;;;;;5069403;28;20052;-62
2023/12/20 12:41:57;;;;;;;9.48;1.27;;;9.80;99.90;;;;;;5062644;28;20106;-63
2023/12/20 12:44:25;;;;;;;2.55;1.20;;;9.90;99.90;;;;;;5062422;28;20048;-63
2023/12/20 12:46:53;;;;;;;10.65;1.33;;;10.00;99.90;;;;;;5066072;28;20048;-64
2023/12/20 12:49:21;;;;;;;7.22;2.05;;;10.10;99.90;;;;;;5077434;28;20055;-62
2023/12/20 12:51:48;;;;;;;13.07;2.78;;;10.20;99.90;;;;;;5075179;28;20048;-61
2023/12/20 12:54:18;;;;;;;4.68;1.30;;;10.30;99.90;;;;;;5074139;28;20075;-63